Time;durP1;ratioP1;P1;durP2;ratioP2;P2;SDS_P1;SDS_P2;PMS_P1;PMS_P2;Temp;Humidity;BMP_temperature;BMP_pressure;BME280_temperature;BME280_humidity;BME280_pressure;Samples;Min_cycle;Max_cycle;Signal;HPM_P1;HPM_P2
2022/12/31 00:00:51;;;;;;;;;;;17.40;53.50;;;;;;10245061;28;1965;-75
2022/12/31 00:05:46;;;;;;;;;;;17.40;53.50;;;;;;10250171;28;875;-75
2022/12/31 00:10:42;;;;;;;;;;;17.40;53.40;;;;;;10249732;28;1038;-75
2022/12/31 00:15:37;;;;;;;;;;;17.40;53.40;;;;;;10250444;28;814;-75
2022/12/31 00:20:33;;;;;;;;;;;17.40;53.40;;;;;;10249018;28;1952;-74
2022/12/31 00:25:28;;;;;;;;;;;17.40;53.40;;;;;;10248912;28;913;-74
2022/12/31 00:30:23;;;;;;;;;;;17.40;53.50;;;;;;10249913;28;905;-75
2022/12/31 00:35:19;;;;;;;;;;;17.40;53.40;;;;;;10249555;28;1317;-75
2022/12/31 00:40:14;;;;;;;;;;;17.40;53.40;;;;;;10249532;28;1907;-75
2022/12/31 00:45:09;;;;;;;;;;;17.40;53.50;;;;;;10249386;28;908;-75
2022/12/31 00:50:05;;;;;;;;;;;17.40;53.70;;;;;;10249161;28;1056;-75
2022/12/31 00:55:00;;;;;;;;;;;17.40;53.50;;;;;;10248400;28;805;-74
2022/12/31 00:59:55;;;;;;;;;;;17.40;53.40;;;;;;10248149;28;1911;-75
2022/12/31 01:04:51;;;;;;;;;;;17.50;53.50;;;;;;10248608;28;913;-75
2022/12/31 01:09:46;;;;;;;;;;;17.40;53.40;;;;;;10247831;28;795;-75
2022/12/31 01:14:42;;;;;;;;;;;17.40;53.50;;;;;;10247107;28;869;-75
2022/12/31 01:19:37;;;;;;;;;;;17.40;53.50;;;;;;10247292;28;1965;-75
2022/12/31 01:24:32;;;;;;;;;;;17.40;53.40;;;;;;10247849;28;786;-75
2022/12/31 01:29:28;;;;;;;;;;;17.40;53.40;;;;;;10247065;28;782;-75
2022/12/31 01:34:23;;;;;;;;;;;17.50;53.50;;;;;;10246828;28;1165;-75
2022/12/31 01:39:19;;;;;;;;;;;17.40;53.50;;;;;;10246642;28;1914;-75
2022/12/31 01:44:14;;;;;;;;;;;17.40;53.60;;;;;;10246411;28;873;-75
2022/12/31 01:49:09;;;;;;;;;;;17.40;53.70;;;;;;10245681;28;888;-75
2022/12/31 01:54:05;;;;;;;;;;;17.40;53.60;;;;;;10246102;28;934;-75
2022/12/31 01:59:00;;;;;;;;;;;17.40;53.60;;;;;;10245906;28;812;-75
2022/12/31 02:03:56;;;;;;;;;;;17.40;53.60;;;;;;10246692;28;1898;-75
2022/12/31 02:08:51;;;;;;;;;;;17.40;53.70;;;;;;10245548;28;862;-75
2022/12/31 02:13:47;;;;;;;;;;;17.40;53.70;;;;;;10245371;28;766;-75
2022/12/31 02:18:42;;;;;;;;;;;17.40;53.80;;;;;;10245207;28;873;-75
2022/12/31 02:23:37;;;;;;;;;;;17.50;53.80;;;;;;10244268;28;1894;-75
2022/12/31 02:28:33;;;;;;;;;;;17.40;53.90;;;;;;10246056;28;904;-75
2022/12/31 02:33:28;;;;;;;;;;;17.50;54.70;;;;;;10244990;28;1280;-75
2022/12/31 02:38:23;;;;;;;;;;;17.40;54.10;;;;;;10244636;28;899;-75
2022/12/31 02:43:19;;;;;;;;;;;17.40;54.30;;;;;;10244398;28;1915;-75
2022/12/31 02:48:14;;;;;;;;;;;17.40;54.30;;;;;;10244335;28;980;-75
2022/12/31 02:53:09;;;;;;;;;;;17.50;54.50;;;;;;10244908;28;849;-75
2022/12/31 02:58:05;;;;;;;;;;;17.50;54.50;;;;;;10244425;28;838;-75
2022/12/31 03:03:00;;;;;;;;;;;17.50;54.40;;;;;;10243940;28;1894;-75
2022/12/31 03:07:55;;;;;;;;;;;17.50;54.50;;;;;;10243952;28;770;-75
2022/12/31 03:12:51;;;;;;;;;;;17.50;54.40;;;;;;10243862;28;899;-75
2022/12/31 03:17:46;;;;;;;;;;;17.50;54.70;;;;;;10244358;28;897;-75
2022/12/31 03:22:42;;;;;;;;;;;17.40;54.70;;;;;;10244246;28;1971;-75
2022/12/31 03:27:37;;;;;;;;;;;17.50;54.70;;;;;;10244183;28;834;-75
2022/12/31 03:32:32;;;;;;;;;;;17.50;54.70;;;;;;10243769;28;1212;-75
2022/12/31 03:37:28;;;;;;;;;;;17.50;54.70;;;;;;10247906;28;1005;-75
2022/12/31 03:42:23;;;;;;;;;;;17.50;54.70;;;;;;10251074;28;1969;-75
2022/12/31 03:47:18;;;;;;;;;;;17.50;54.90;;;;;;10251530;28;834;-75
2022/12/31 03:52:14;;;;;;;;;;;17.50;55.10;;;;;;10250811;28;944;-75
2022/12/31 03:57:09;;;;;;;;;;;17.50;54.90;;;;;;10250970;28;892;-75
2022/12/31 04:02:05;;;;;;;;;;;17.50;55.00;;;;;;10250949;28;1910;-75
2022/12/31 04:07:00;;;;;;;;;;;17.50;55.10;;;;;;10251152;28;862;-75
2022/12/31 04:11:55;;;;;;;;;;;17.50;55.10;;;;;;10249981;28;958;-75
2022/12/31 04:16:51;;;;;;;;;;;17.50;55.10;;;;;;10250460;28;872;-75
2022/12/31 04:21:46;;;;;;;;;;;17.50;55.20;;;;;;10250197;28;1980;-75
2022/12/31 04:26:42;;;;;;;;;;;17.50;55.30;;;;;;10250102;28;811;-75
2022/12/31 04:31:38;;;;;;;;;;;17.50;55.30;;;;;;10249287;28;794;-75
2022/12/31 04:36:33;;;;;;;;;;;17.50;55.40;;;;;;10249177;28;1197;-75
2022/12/31 04:41:29;;;;;;;;;;;17.50;55.60;;;;;;10249189;28;1910;-75
2022/12/31 04:46:24;;;;;;;;;;;17.50;55.60;;;;;;10248912;28;931;-75
2022/12/31 04:51:19;;;;;;;;;;;17.50;55.50;;;;;;10248216;28;868;-75
2022/12/31 04:56:15;;;;;;;;;;;17.50;55.40;;;;;;10248423;28;889;-75
2022/12/31 05:01:11;;;;;;;;;;;17.50;55.50;;;;;;10249231;28;1902;-75
2022/12/31 05:06:06;;;;;;;;;;;17.50;55.50;;;;;;10248613;28;969;-75
2022/12/31 05:11:01;;;;;;;;;;;17.50;55.60;;;;;;10247901;28;799;-75
2022/12/31 05:15:57;;;;;;;;;;;17.50;55.50;;;;;;10247706;28;780;-75
2022/12/31 05:20:52;;;;;;;;;;;17.50;55.60;;;;;;10247835;28;1963;-75
2022/12/31 05:25:47;;;;;;;;;;;17.50;55.70;;;;;;10247317;28;771;-75
2022/12/31 05:30:43;;;;;;;;;;;17.50;55.80;;;;;;10247710;28;859;-75
2022/12/31 05:35:38;;;;;;;;;;;17.50;55.70;;;;;;10247122;28;1369;-75
2022/12/31 05:40:33;;;;;;;;;;;17.60;55.90;;;;;;10246053;28;1964;-75
2022/12/31 05:45:29;;;;;;;;;;;17.60;55.80;;;;;;10246549;28;803;-75
2022/12/31 05:50:24;;;;;;;;;;;17.60;55.80;;;;;;10246406;28;1036;-75
2022/12/31 05:55:19;;;;;;;;;;;17.60;55.90;;;;;;10246327;28;737;-74
2022/12/31 06:00:15;;;;;;;;;;;17.60;55.80;;;;;;10245797;28;1906;-74
2022/12/31 06:05:11;;;;;;;;;;;17.70;55.90;;;;;;10246307;28;881;-74
2022/12/31 06:10:06;;;;;;;;;;;17.70;55.90;;;;;;10245595;28;799;-77
2022/12/31 06:15:02;;;;;;;;;;;17.70;56.00;;;;;;10245432;28;868;-75
2022/12/31 06:19:57;;;;;;;;;;;17.70;55.90;;;;;;10245136;28;1905;-75
2022/12/31 06:24:53;;;;;;;;;;;17.70;56.00;;;;;;10242138;28;1200;-75
2022/12/31 06:29:49;;;;;;;;;;;17.70;56.00;;;;;;10244410;28;774;-74
2022/12/31 06:34:45;;;;;;;;;;;17.70;56.00;;;;;;10243954;28;1365;-75
2022/12/31 06:39:40;;;;;;;;;;;17.70;55.90;;;;;;10244236;28;1914;-74
2022/12/31 06:44:35;;;;;;;;;;;17.70;56.00;;;;;;10244618;28;794;-75
2022/12/31 06:49:31;;;;;;;;;;;17.70;56.00;;;;;;10244558;28;759;-75
2022/12/31 06:54:26;;;;;;;;;;;17.70;56.00;;;;;;10243576;28;823;-75
2022/12/31 06:59:22;;;;;;;;;;;17.70;55.90;;;;;;10243891;28;1968;-74
2022/12/31 07:04:18;;;;;;;;;;;17.70;55.90;;;;;;10242800;28;1069;-75
2022/12/31 07:09:13;;;;;;;;;;;17.70;56.10;;;;;;10243807;28;851;-75
2022/12/31 07:14:09;;;;;;;;;;;17.70;56.00;;;;;;10251172;28;874;-75
2022/12/31 07:19:04;;;;;;;;;;;17.70;56.10;;;;;;10251957;28;787;-75
2022/12/31 07:23:59;;;;;;;;;;;17.70;56.10;;;;;;10251188;28;1899;-75
2022/12/31 07:28:55;;;;;;;;;;;17.70;56.20;;;;;;10250925;28;1079;-74
2022/12/31 07:33:50;;;;;;;;;;;17.70;56.20;;;;;;10251316;28;1161;-75
2022/12/31 07:38:45;;;;;;;;;;;17.70;56.10;;;;;;10251100;28;790;-75
2022/12/31 07:43:41;;;;;;;;;;;17.70;56.10;;;;;;10250717;28;1931;-73
2022/12/31 07:48:36;;;;;;;;;;;17.70;56.20;;;;;;10250940;28;886;-73
2022/12/31 07:53:31;;;;;;;;;;;17.90;56.70;;;;;;10250221;28;901;-73
2022/12/31 07:58:27;;;;;;;;;;;18.00;56.80;;;;;;10251650;28;898;-73
2022/12/31 08:03:22;;;;;;;;;;;18.00;56.70;;;;;;10250568;28;1902;-77
2022/12/31 08:08:18;;;;;;;;;;;18.00;56.70;;;;;;10251454;28;900;-71
2022/12/31 08:13:13;;;;;;;;;;;18.10;56.90;;;;;;10250086;28;794;-71
2022/12/31 08:18:08;;;;;;;;;;;18.10;57.10;;;;;;10249324;28;926;-72
2022/12/31 08:23:04;;;;;;;;;;;18.10;57.30;;;;;;10248883;28;1961;-71
2022/12/31 08:27:59;;;;;;;;;;;18.10;57.30;;;;;;10249410;28;867;-71
2022/12/31 08:32:54;;;;;;;;;;;18.10;57.40;;;;;;10249617;28;1291;-72
2022/12/31 08:37:50;;;;;;;;;;;18.10;57.40;;;;;;10249133;28;818;-71
2022/12/31 08:42:45;;;;;;;;;;;18.10;57.30;;;;;;10249436;28;1965;-72
2022/12/31 08:47:40;;;;;;;;;;;18.20;57.30;;;;;;10248774;28;778;-72
2022/12/31 08:52:36;;;;;;;;;;;18.20;57.20;;;;;;10248022;28;929;-71
2022/12/31 08:57:32;;;;;;;;;;;18.20;57.20;;;;;;10249029;28;837;-71
2022/12/31 09:02:27;;;;;;;;;;;18.20;57.40;;;;;;10249007;28;1902;-75
2022/12/31 09:07:23;;;;;;;;;;;18.20;57.50;;;;;;10248787;28;798;-71
2022/12/31 09:12:18;;;;;;;;;;;18.20;57.50;;;;;;10247854;28;760;-72
2022/12/31 09:17:13;;;;;;;;;;;18.20;57.50;;;;;;10247570;28;901;-73
2022/12/31 09:22:09;;;;;;;;;;;18.20;57.60;;;;;;10248052;28;1954;-75
2022/12/31 09:27:04;;;;;;;;;;;18.10;57.50;;;;;;10246712;28;822;-74
2022/12/31 09:32:00;;;;;;;;;;;18.10;57.40;;;;;;10247255;28;970;-75
2022/12/31 09:36:55;;;;;;;;;;;18.10;57.50;;;;;;10247469;28;1416;-74
2022/12/31 09:41:50;;;;;;;;;;;18.00;57.40;;;;;;10245984;28;1965;-75
2022/12/31 09:46:46;;;;;;;;;;;18.00;57.30;;;;;;10246491;28;811;-75
2022/12/31 09:51:41;;;;;;;;;;;18.00;57.80;;;;;;10246452;28;872;-74
2022/12/31 09:56:36;;;;;;;;;;;18.00;57.90;;;;;;10246083;28;837;-74
2022/12/31 10:01:32;;;;;;;;;;;18.00;57.30;;;;;;10245849;28;1952;-75
2022/12/31 10:06:27;;;;;;;;;;;17.90;57.20;;;;;;10245751;28;791;-74
2022/12/31 10:11:23;;;;;;;;;;;17.90;57.20;;;;;;10245553;28;863;-75
2022/12/31 10:16:18;;;;;;;;;;;17.90;57.20;;;;;;10245387;28;876;-74
2022/12/31 10:21:15;;;;;;;;;;;18.00;57.30;;;;;;10245840;28;1957;-71
2022/12/31 10:26:10;;;;;;;;;;;18.00;57.20;;;;;;10245106;28;778;-71
2022/12/31 10:31:06;;;;;;;;;;;18.10;57.60;;;;;;10245448;28;860;-71
2022/12/31 10:36:01;;;;;;;;;;;18.20;57.80;;;;;;10244120;28;1272;-70
2022/12/31 10:40:56;;;;;;;;;;;18.20;57.90;;;;;;10244637;28;1910;-70
2022/12/31 10:45:52;;;;;;;;;;;18.20;58.00;;;;;;10243738;28;964;-70
2022/12/31 10:50:47;;;;;;;;;;;18.20;58.00;;;;;;10244299;28;868;-71
2022/12/31 10:55:43;;;;;;;;;;;18.20;57.90;;;;;;10244848;28;902;-71
2022/12/31 11:00:38;;;;;;;;;;;18.30;57.90;;;;;;10244958;28;1907;-73
2022/12/31 11:05:33;;;;;;;;;;;18.30;57.70;;;;;;10245357;28;1042;-72
2022/12/31 11:10:29;;;;;;;;;;;18.30;57.90;;;;;;10243900;28;909;-73
2022/12/31 11:15:24;;;;;;;;;;;18.30;57.80;;;;;;10243866;28;895;-74
2022/12/31 11:20:22;;;;;;;;;;;18.30;57.70;;;;;;10243694;28;1958;-75
2022/12/31 11:25:17;;;;;;;;;;;18.30;57.80;;;;;;10243678;28;1051;-74
2022/12/31 11:30:13;;;;;;;;;;;18.20;57.80;;;;;;10243567;28;760;-74
2022/12/31 11:35:08;;;;;;;;;;;18.20;57.80;;;;;;10243736;28;1145;-73
2022/12/31 11:40:03;;;;;;;;;;;18.20;57.70;;;;;;10242655;28;1911;-76
2022/12/31 11:44:59;;;;;;;;;;;18.20;57.60;;;;;;10243286;28;811;-74
2022/12/31 11:49:54;;;;;;;;;;;18.20;57.60;;;;;;10243250;28;775;-74
2022/12/31 11:54:50;;;;;;;;;;;18.20;57.70;;;;;;10243132;28;786;-74
2022/12/31 11:59:45;;;;;;;;;;;18.30;57.80;;;;;;10249200;28;1906;-74
2022/12/31 12:04:40;;;;;;;;;;;18.30;58.00;;;;;;10250381;28;953;-73
2022/12/31 12:09:36;;;;;;;;;;;18.30;57.90;;;;;;10250872;28;782;-74
2022/12/31 12:14:31;;;;;;;;;;;18.30;57.90;;;;;;10250169;28;786;-74
2022/12/31 12:19:26;;;;;;;;;;;18.30;58.00;;;;;;10249726;28;976;-73
2022/12/31 12:24:22;;;;;;;;;;;18.30;57.90;;;;;;10249377;28;1993;-73
2022/12/31 12:29:17;;;;;;;;;;;18.30;57.80;;;;;;10249284;28;827;-74
2022/12/31 12:34:12;;;;;;;;;;;18.30;57.90;;;;;;10249585;28;1153;-73
2022/12/31 12:39:08;;;;;;;;;;;18.30;57.90;;;;;;10248880;28;769;-73
2022/12/31 12:44:03;;;;;;;;;;;18.30;57.90;;;;;;10249204;28;1910;-73
2022/12/31 12:48:59;;;;;;;;;;;18.20;57.80;;;;;;10248494;28;848;-70
2022/12/31 12:53:54;;;;;;;;;;;18.30;57.90;;;;;;10249643;28;1004;-71
2022/12/31 12:58:49;;;;;;;;;;;18.40;58.30;;;;;;10248722;28;822;-71
2022/12/31 13:03:45;;;;;;;;;;;18.50;58.30;;;;;;10247903;28;1967;-71
2022/12/31 13:08:40;;;;;;;;;;;18.50;58.20;;;;;;10247570;28;857;-71
2022/12/31 13:13:35;;;;;;;;;;;18.50;58.30;;;;;;10247537;28;778;-72
2022/12/31 13:18:31;;;;;;;;;;;18.50;58.40;;;;;;10247908;28;1005;-71
2022/12/31 13:23:26;;;;;;;;;;;18.50;58.60;;;;;;10247264;28;1962;-71
2022/12/31 13:28:22;;;;;;;;;;;18.50;58.60;;;;;;10246902;28;819;-71
2022/12/31 13:33:17;;;;;;;;;;;18.50;58.70;;;;;;10246831;28;1335;-71
2022/12/31 13:38:12;;;;;;;;;;;18.50;58.70;;;;;;10246648;28;810;-71
2022/12/31 13:43:08;;;;;;;;;;;18.50;58.70;;;;;;10246282;28;1922;-71
2022/12/31 13:48:04;;;;;;;;;;;18.60;58.70;;;;;;10247159;28;803;-71
2022/12/31 13:52:59;;;;;;;;;;;18.60;58.70;;;;;;10245919;28;971;-71
2022/12/31 13:57:55;;;;;;;;;;;18.60;58.80;;;;;;10245803;28;778;-71
2022/12/31 14:02:50;;;;;;;;;;;18.60;58.80;;;;;;10245567;28;1969;-71
2022/12/31 14:07:45;;;;;;;;;;;18.60;58.80;;;;;;10245633;28;902;-71
2022/12/31 14:12:41;;;;;;;;;;;18.60;58.90;;;;;;10245251;28;795;-71
2022/12/31 14:17:37;;;;;;;;;;;18.60;58.90;;;;;;10245095;28;917;-71
2022/12/31 14:22:33;;;;;;;;;;;18.60;58.90;;;;;;10244790;28;1890;-70
2022/12/31 14:27:28;;;;;;;;;;;18.60;58.80;;;;;;10245290;28;880;-74
2022/12/31 14:32:24;;;;;;;;;;;18.60;58.70;;;;;;10244538;28;1290;-74
2022/12/31 14:37:20;;;;;;;;;;;18.50;58.70;;;;;;10244597;28;868;-74
2022/12/31 14:42:15;;;;;;;;;;;18.40;58.70;;;;;;10244806;28;1976;-74
2022/12/31 14:47:10;;;;;;;;;;;18.40;58.80;;;;;;10244172;28;953;-74
2022/12/31 14:52:06;;;;;;;;;;;18.40;58.50;;;;;;10244681;28;803;-74
2022/12/31 14:57:01;;;;;;;;;;;18.40;58.50;;;;;;10243345;28;833;-73
2022/12/31 15:01:57;;;;;;;;;;;18.40;58.40;;;;;;10243944;28;1906;-74
2022/12/31 15:06:52;;;;;;;;;;;18.40;58.30;;;;;;10243688;28;997;-74
2022/12/31 15:11:48;;;;;;;;;;;18.40;58.20;;;;;;10243599;28;879;-73
2022/12/31 15:16:43;;;;;;;;;;;18.40;58.20;;;;;;10244151;28;934;-75
2022/12/31 15:21:38;;;;;;;;;;;18.40;58.10;;;;;;10243916;28;1965;-73
2022/12/31 15:26:34;;;;;;;;;;;18.40;58.00;;;;;;10243401;28;818;-72
2022/12/31 15:31:30;;;;;;;;;;;18.50;58.60;;;;;;10244788;28;897;-72
2022/12/31 15:36:25;;;;;;;;;;;18.60;58.10;;;;;;10251883;28;1672;-72
2022/12/31 15:41:21;;;;;;;;;;;18.60;58.10;;;;;;10251040;28;1977;-72
2022/12/31 15:46:16;;;;;;;;;;;18.70;58.10;;;;;;10251412;28;890;-71
2022/12/31 15:51:11;;;;;;;;;;;18.70;58.00;;;;;;10250649;28;819;-71
2022/12/31 15:56:07;;;;;;;;;;;18.70;58.10;;;;;;10251093;28;912;-71
2022/12/31 16:01:02;;;;;;;;;;;18.70;58.00;;;;;;10250869;28;1956;-71
2022/12/31 16:05:57;;;;;;;;;;;18.80;58.00;;;;;;10250178;28;794;-71
2022/12/31 16:10:53;;;;;;;;;;;18.70;57.90;;;;;;10249407;28;884;-71
2022/12/31 16:15:48;;;;;;;;;;;18.70;57.90;;;;;;10251024;28;830;-71
2022/12/31 16:20:44;;;;;;;;;;;18.70;57.80;;;;;;10250137;28;1963;-71
2022/12/31 16:25:40;;;;;;;;;;;18.70;57.70;;;;;;10249973;28;798;-71
2022/12/31 16:30:35;;;;;;;;;;;18.80;57.70;;;;;;10249228;28;894;-71
2022/12/31 16:35:31;;;;;;;;;;;18.80;57.60;;;;;;10249177;28;1260;-71
2022/12/31 16:40:26;;;;;;;;;;;18.80;57.50;;;;;;10248836;28;1971;-71
2022/12/31 16:45:21;;;;;;;;;;;18.80;57.40;;;;;;10247492;28;903;-71
2022/12/31 16:50:17;;;;;;;;;;;18.80;57.30;;;;;;10249104;28;865;-73
2022/12/31 16:55:12;;;;;;;;;;;18.80;57.10;;;;;;10249357;28;901;-71
2022/12/31 17:00:07;;;;;;;;;;;18.80;57.20;;;;;;10248642;28;1965;-71
2022/12/31 17:05:03;;;;;;;;;;;18.80;57.20;;;;;;10248338;28;915;-71
2022/12/31 17:09:58;;;;;;;;;;;18.80;57.10;;;;;;10247846;28;770;-71
2022/12/31 17:14:54;;;;;;;;;;;18.80;57.10;;;;;;10248208;28;909;-71
2022/12/31 17:19:49;;;;;;;;;;;18.80;57.00;;;;;;10248508;28;1910;-71
2022/12/31 17:24:44;;;;;;;;;;;18.80;56.90;;;;;;10246930;28;881;-71
2022/12/31 17:29:40;;;;;;;;;;;18.80;56.70;;;;;;10246744;28;867;-71
2022/12/31 17:34:35;;;;;;;;;;;18.80;56.90;;;;;;10247301;28;1363;-71
2022/12/31 17:39:31;;;;;;;;;;;18.80;56.80;;;;;;10247556;28;790;-71
2022/12/31 17:44:26;;;;;;;;;;;18.80;56.60;;;;;;10247191;28;2334;-71
2022/12/31 17:49:25;;;;;;;;;;;18.80;56.50;;;;;;10245889;28;942;-71
2022/12/31 17:54:21;;;;;;;;;;;18.80;56.60;;;;;;10246126;28;775;-71
2022/12/31 17:59:16;;;;;;;;;;;18.90;56.60;;;;;;10246713;28;882;-71
2022/12/31 18:04:12;;;;;;;;;;;18.90;56.40;;;;;;10246456;28;1979;-71
2022/12/31 18:09:07;;;;;;;;;;;18.80;56.30;;;;;;10245161;28;938;-71
2022/12/31 18:14:02;;;;;;;;;;;18.90;56.20;;;;;;10245650;28;952;-71
2022/12/31 18:18:58;;;;;;;;;;;18.90;56.10;;;;;;10245381;28;813;-71
2022/12/31 18:23:53;;;;;;;;;;;18.90;55.90;;;;;;10244398;28;1910;-71
2022/12/31 18:28:48;;;;;;;;;;;18.90;55.80;;;;;;10245725;28;892;-71
2022/12/31 18:33:45;;;;;;;;;;;18.80;55.60;;;;;;10245526;28;1233;-71
2022/12/31 18:38:41;;;;;;;;;;;18.80;55.80;;;;;;10244813;28;962;-71
2022/12/31 18:43:36;;;;;;;;;;;18.80;55.50;;;;;;10243988;28;1969;-71
2022/12/31 18:48:31;;;;;;;;;;;18.80;55.50;;;;;;10244553;28;798;-71
2022/12/31 18:53:27;;;;;;;;;;;18.90;55.30;;;;;;10245701;28;918;-71
2022/12/31 18:58:22;;;;;;;;;;;18.90;55.30;;;;;;10243034;28;758;-71
2022/12/31 19:03:17;;;;;;;;;;;18.90;55.20;;;;;;10244100;28;1902;-71
2022/12/31 19:08:13;;;;;;;;;;;18.90;55.20;;;;;;10243388;28;861;-70
2022/12/31 19:13:08;;;;;;;;;;;18.90;54.90;;;;;;10243962;28;850;-71
2022/12/31 19:18:03;;;;;;;;;;;18.90;54.90;;;;;;10243846;28;887;-71
2022/12/31 19:22:59;;;;;;;;;;;18.90;55.00;;;;;;10243691;28;1957;-71
2022/12/31 19:27:54;;;;;;;;;;;18.90;54.90;;;;;;10244289;28;869;-71
2022/12/31 19:32:50;;;;;;;;;;;18.90;54.80;;;;;;10243471;28;1161;-71
2022/12/31 19:37:45;;;;;;;;;;;18.90;55.00;;;;;;10243469;28;728;-71
2022/12/31 19:42:40;;;;;;;;;;;18.90;54.70;;;;;;10243936;28;1960;-71
2022/12/31 19:47:36;;;;;;;;;;;18.90;55.00;;;;;;10244254;28;779;-71
2022/12/31 19:52:31;;;;;;;;;;;18.90;54.90;;;;;;10243035;28;771;-71
2022/12/31 19:57:27;;;;;;;;;;;18.90;55.00;;;;;;10242174;28;838;-72
2022/12/31 20:02:22;;;;;;;;;;;18.90;54.80;;;;;;10243204;28;1953;-71
2022/12/31 20:07:17;;;;;;;;;;;18.90;54.60;;;;;;10242638;28;872;-71
2022/12/31 20:12:13;;;;;;;;;;;18.90;54.60;;;;;;10242648;28;991;-71
2022/12/31 20:17:08;;;;;;;;;;;18.90;54.40;;;;;;10243910;28;833;-71
2022/12/31 20:22:03;;;;;;;;;;;19.00;54.30;;;;;;10250196;28;1906;-71
2022/12/31 20:26:59;;;;;;;;;;;18.90;54.00;;;;;;10249427;28;871;-71
2022/12/31 20:31:54;;;;;;;;;;;18.90;53.90;;;;;;10249291;28;971;-71
2022/12/31 20:36:49;;;;;;;;;;;18.90;53.80;;;;;;10248645;28;1286;-71
2022/12/31 20:41:45;;;;;;;;;;;18.90;53.90;;;;;;10248863;28;1914;-71
2022/12/31 20:46:40;;;;;;;;;;;18.90;53.60;;;;;;10248677;28;769;-71
2022/12/31 20:51:35;;;;;;;;;;;18.90;53.50;;;;;;10249081;28;810;-75
2022/12/31 20:56:33;;;;;;;;;;;18.90;53.60;;;;;;10247684;28;1055;-73
2022/12/31 21:01:28;;;;;;;;;;;18.80;54.20;;;;;;10248563;28;1894;-74
2022/12/31 21:06:24;;;;;;;;;;;18.70;54.20;;;;;;10248479;28;866;-73
2022/12/31 21:16:33;;;;;;;;;;;18.70;54.00;;;;;;10247690;28;577;-73
2022/12/31 21:21:28;;;;;;;;;;;18.60;53.60;;;;;;10247307;28;1961;-74
2022/12/31 21:26:24;;;;;;;;;;;18.60;53.40;;;;;;10247180;28;885;-74
2022/12/31 21:31:19;;;;;;;;;;;18.60;53.50;;;;;;10246325;28;867;-74
2022/12/31 21:36:14;;;;;;;;;;;18.60;53.70;;;;;;10247216;28;1198;-73
2022/12/31 21:41:49;;;;;;;;;;;18.60;53.40;;;;;;10246985;28;1981;-74
2022/12/31 21:46:28;;;;;;;;;;;18.60;53.50;;;;;;10246454;28;1795;-73
2022/12/31 21:51:23;;;;;;;;;;;18.60;53.50;;;;;;10246772;28;854;-74
2022/12/31 21:56:20;;;;;;;;;;;18.60;53.50;;;;;;10246114;28;879;-75
2022/12/31 22:06:38;;;;;;;;;;;18.50;53.10;;;;;;10222754;28;1201;-74
2022/12/31 22:11:33;;;;;;;;;;;18.50;53.10;;;;;;10245982;28;899;-74
2022/12/31 22:16:28;;;;;;;;;;;18.50;53.10;;;;;;10245396;28;802;-74
2022/12/31 22:21:24;;;;;;;;;;;18.50;53.00;;;;;;10245562;28;1989;-74
2022/12/31 22:26:20;;;;;;;;;;;18.50;52.90;;;;;;10245133;28;829;-74
2022/12/31 22:31:15;;;;;;;;;;;18.50;53.00;;;;;;10244725;28;891;-74
2022/12/31 22:36:10;;;;;;;;;;;18.50;53.00;;;;;;10243858;28;1264;-73
2022/12/31 22:41:06;;;;;;;;;;;18.50;52.80;;;;;;10243533;28;1913;-74
2022/12/31 22:46:01;;;;;;;;;;;18.50;52.90;;;;;;10244265;28;757;-75
2022/12/31 22:50:57;;;;;;;;;;;18.50;52.60;;;;;;10244712;28;849;-74
2022/12/31 22:55:52;;;;;;;;;;;18.50;52.60;;;;;;10243527;28;861;-74
2022/12/31 23:00:47;;;;;;;;;;;18.50;52.70;;;;;;10244979;28;1902;-74
2022/12/31 23:05:43;;;;;;;;;;;18.50;52.80;;;;;;10244507;28;955;-74
2022/12/31 23:26:20;;;;;;;;;;;18.50;52.40;;;;;;10242986;28;608;-75
2022/12/31 23:31:16;;;;;;;;;;;18.50;52.20;;;;;;10243672;28;870;-75
2022/12/31 23:36:11;;;;;;;;;;;18.50;52.30;;;;;;10243850;28;1432;-75
2022/12/31 23:41:06;;;;;;;;;;;18.50;52.50;;;;;;10244953;28;1922;-74
2022/12/31 23:46:02;;;;;;;;;;;18.50;52.40;;;;;;10243972;28;932;-75
2022/12/31 23:50:57;;;;;;;;;;;18.50;52.40;;;;;;10243400;28;804;-75
2022/12/31 23:55:53;;;;;;;;;;;18.50;52.50;;;;;;10249403;28;972;-74
